Terminal Aerodrome Forecast
Issued by NWS

Current Version | Previous Version | Text Only | Print | Product List | Glossary On
Versions: 1 2 3 4 5 6 7 8 9 10 11 12 13 14 15 16 17 18 19 20 21 22 23 24
000 FTUS41 KILN 261136 TAFLCK TAF KLCK 261136Z 2612/2712 30010KT P6SM OVC030 FM261300 28008KT P6SM FEW250 FM261600 23010KT P6SM SCT250 FM270200 20005KT P6SM BKN120=

USA.gov is the U.S. government's official web portal to all federal, state and local government web resources and services.